Terminal Aerodrome Forecast
Issued by NWS

Home | Current Version | Previous Version | Text Only | Print | Product List | Glossary On
Versions: 1 2 3 4 5 6 7 8 9 10 11 12 13 14 15
000
FTUS43 KBIS 101124
TAFMOT
TAF
KMOT 101124Z 1012/1112 VRB03KT P6SM BKN060
     FM102000 12008KT P6SM -SN OVC040
     FM110100 09009KT 2SM -SN BR OVC015
     FM111100 06004KT P6SM BKN010=

USA.gov is the U.S. government's official web portal to all federal, state and local government web resources and services.